Terminal Aerodrome Forecast
Issued by NWS

Home | Current Version | Previous Version | Text Only | Print | Product List | Glossary On
Versions: 1 2 3 4 5 6 7 8 9 10 11
707
FTUS44 KJAN 251724
TAFHKS
TAF
KHKS 251724Z 2518/2618 17010KT P6SM FEW250
     FM260900 16012KT P6SM OVC050
     FM261400 17013G19KT P6SM BKN025
     FM261600 17014G21KT P6SM BKN050=

USA.gov is the U.S. government's official web portal to all federal, state and local government web resources and services.